sensor_id;sensor_type;location;lat;lon;timestamp;P1;durP1;ratioP1;P2;durP2;ratioP2
52035;SDS011;38046;49.448;32.074;2022-11-12T00:00:40;8.15;;;5.72;;
52035;SDS011;38046;49.448;32.074;2022-11-12T00:03:06;7.78;;;5.28;;
52035;SDS011;38046;49.448;32.074;2022-11-12T00:05:32;6.65;;;4.40;;
52035;SDS011;38046;49.448;32.074;2022-11-12T00:07:58;6.18;;;4.95;;
52035;SDS011;38046;49.448;32.074;2022-11-12T00:10:25;7.00;;;4.88;;
52035;SDS011;38046;49.448;32.074;2022-11-12T00:12:51;8.27;;;5.25;;
52035;SDS011;38046;49.448;32.074;2022-11-12T00:15:17;7.60;;;5.35;;
52035;SDS011;38046;49.448;32.074;2022-11-12T00:17:43;6.55;;;4.47;;
52035;SDS011;38046;49.448;32.074;2022-11-12T00:20:09;6.72;;;4.80;;
52035;SDS011;38046;49.448;32.074;2022-11-12T00:22:35;7.15;;;5.22;;
52035;SDS011;38046;49.448;32.074;2022-11-12T00:25:01;7.43;;;5.00;;
52035;SDS011;38046;49.448;32.074;2022-11-12T00:27:28;7.20;;;4.80;;
52035;SDS011;38046;49.448;32.074;2022-11-12T00:29:53;6.82;;;4.78;;
52035;SDS011;38046;49.448;32.074;2022-11-12T00:32:19;7.00;;;4.72;;
52035;SDS011;38046;49.448;32.074;2022-11-12T00:34:44;6.28;;;4.03;;
52035;SDS011;38046;49.448;32.074;2022-11-12T00:37:10;8.18;;;5.18;;
52035;SDS011;38046;49.448;32.074;2022-11-12T00:39:36;6.10;;;4.80;;
52035;SDS011;38046;49.448;32.074;2022-11-12T00:42:01;6.68;;;4.47;;
52035;SDS011;38046;49.448;32.074;2022-11-12T00:44:27;6.47;;;4.30;;
52035;SDS011;38046;49.448;32.074;2022-11-12T00:46:53;5.65;;;4.30;;
52035;SDS011;38046;49.448;32.074;2022-11-12T00:49:20;6.82;;;5.07;;
52035;SDS011;38046;49.448;32.074;2022-11-12T00:51:45;6.78;;;4.47;;
52035;SDS011;38046;49.448;32.074;2022-11-12T00:54:11;7.82;;;5.53;;
52035;SDS011;38046;49.448;32.074;2022-11-12T00:56:37;8.98;;;5.88;;
52035;SDS011;38046;49.448;32.074;2022-11-12T00:59:02;8.50;;;6.07;;
52035;SDS011;38046;49.448;32.074;2022-11-12T01:01:28;7.80;;;5.85;;
52035;SDS011;38046;49.448;32.074;2022-11-12T01:03:55;8.43;;;6.00;;
52035;SDS011;38046;49.448;32.074;2022-11-12T01:06:22;7.60;;;5.75;;
52035;SDS011;38046;49.448;32.074;2022-11-12T01:08:48;8.48;;;5.95;;
52035;SDS011;38046;49.448;32.074;2022-11-12T01:11:19;9.25;;;6.15;;
52035;SDS011;38046;49.448;32.074;2022-11-12T01:13:51;7.18;;;5.20;;
52035;SDS011;38046;49.448;32.074;2022-11-12T01:16:21;6.78;;;5.78;;
52035;SDS011;38046;49.448;32.074;2022-11-12T01:18:52;9.23;;;6.53;;
52035;SDS011;38046;49.448;32.074;2022-11-12T01:21:19;9.35;;;5.88;;
52035;SDS011;38046;49.448;32.074;2022-11-12T01:23:46;7.80;;;5.88;;
52035;SDS011;38046;49.448;32.074;2022-11-12T01:26:15;8.05;;;5.40;;
52035;SDS011;38046;49.448;32.074;2022-11-12T01:28:42;7.53;;;5.78;;
52035;SDS011;38046;49.448;32.074;2022-11-12T01:33:42;9.40;;;6.43;;
52035;SDS011;38046;49.448;32.074;2022-11-12T01:36:09;7.70;;;5.63;;
52035;SDS011;38046;49.448;32.074;2022-11-12T01:38:36;8.13;;;6.10;;
52035;SDS011;38046;49.448;32.074;2022-11-12T01:41:04;7.20;;;5.65;;
52035;SDS011;38046;49.448;32.074;2022-11-12T01:43:32;7.05;;;4.82;;
52035;SDS011;38046;49.448;32.074;2022-11-12T01:45:58;7.65;;;5.70;;
52035;SDS011;38046;49.448;32.074;2022-11-12T01:48:37;8.38;;;5.97;;
52035;SDS011;38046;49.448;32.074;2022-11-12T01:51:11;9.27;;;6.15;;
52035;SDS011;38046;49.448;32.074;2022-11-12T01:53:39;7.03;;;5.60;;
52035;SDS011;38046;49.448;32.074;2022-11-12T01:56:11;7.97;;;5.88;;
52035;SDS011;38046;49.448;32.074;2022-11-12T01:58:38;6.35;;;5.28;;
52035;SDS011;38046;49.448;32.074;2022-11-12T02:01:05;7.35;;;6.00;;
52035;SDS011;38046;49.448;32.074;2022-11-12T02:03:31;7.13;;;5.15;;
52035;SDS011;38046;49.448;32.074;2022-11-12T02:06:04;8.10;;;6.00;;
52035;SDS011;38046;49.448;32.074;2022-11-12T02:08:33;7.75;;;5.85;;
52035;SDS011;38046;49.448;32.074;2022-11-12T02:11:10;8.50;;;6.43;;
52035;SDS011;38046;49.448;32.074;2022-11-12T02:13:38;7.82;;;5.70;;
52035;SDS011;38046;49.448;32.074;2022-11-12T02:16:44;8.05;;;6.22;;
52035;SDS011;38046;49.448;32.074;2022-11-12T02:19:10;8.60;;;5.30;;
52035;SDS011;38046;49.448;32.074;2022-11-12T02:21:38;7.72;;;5.85;;
52035;SDS011;38046;49.448;32.074;2022-11-12T02:26:37;7.75;;;5.57;;
52035;SDS011;38046;49.448;32.074;2022-11-12T02:29:11;6.97;;;4.90;;
52035;SDS011;38046;49.448;32.074;2022-11-12T02:31:37;6.53;;;5.18;;
52035;SDS011;38046;49.448;32.074;2022-11-12T02:34:03;7.20;;;5.07;;
52035;SDS011;38046;49.448;32.074;2022-11-12T02:36:28;8.77;;;5.95;;
52035;SDS011;38046;49.448;32.074;2022-11-12T02:38:54;8.88;;;5.95;;
52035;SDS011;38046;49.448;32.074;2022-11-12T02:41:20;6.05;;;4.78;;
52035;SDS011;38046;49.448;32.074;2022-11-12T02:43:46;7.15;;;5.25;;
52035;SDS011;38046;49.448;32.074;2022-11-12T02:46:11;6.57;;;4.97;;
52035;SDS011;38046;49.448;32.074;2022-11-12T02:48:37;8.10;;;5.95;;
52035;SDS011;38046;49.448;32.074;2022-11-12T02:51:03;9.00;;;5.60;;
52035;SDS011;38046;49.448;32.074;2022-11-12T02:53:29;6.53;;;5.30;;
52035;SDS011;38046;49.448;32.074;2022-11-12T02:55:56;6.85;;;5.00;;
52035;SDS011;38046;49.448;32.074;2022-11-12T02:58:22;6.35;;;4.70;;
52035;SDS011;38046;49.448;32.074;2022-11-12T03:00:48;5.88;;;4.43;;
52035;SDS011;38046;49.448;32.074;2022-11-12T03:03:15;5.72;;;4.80;;
52035;SDS011;38046;49.448;32.074;2022-11-12T03:05:41;7.90;;;5.22;;
52035;SDS011;38046;49.448;32.074;2022-11-12T03:08:08;8.30;;;5.50;;
52035;SDS011;38046;49.448;32.074;2022-11-12T03:10:36;7.00;;;5.30;;
52035;SDS011;38046;49.448;32.074;2022-11-12T03:13:02;7.30;;;5.30;;
52035;SDS011;38046;49.448;32.074;2022-11-12T03:15:28;7.75;;;5.50;;
52035;SDS011;38046;49.448;32.074;2022-11-12T03:17:56;8.13;;;5.65;;
52035;SDS011;38046;49.448;32.074;2022-11-12T03:20:22;6.15;;;4.75;;
52035;SDS011;38046;49.448;32.074;2022-11-12T03:22:56;6.95;;;5.03;;
52035;SDS011;38046;49.448;32.074;2022-11-12T03:25:27;6.80;;;5.25;;
52035;SDS011;38046;49.448;32.074;2022-11-12T03:27:57;7.25;;;5.50;;
52035;SDS011;38046;49.448;32.074;2022-11-12T03:30:24;8.35;;;6.18;;
52035;SDS011;38046;49.448;32.074;2022-11-12T03:32:51;5.43;;;4.78;;
52035;SDS011;38046;49.448;32.074;2022-11-12T03:35:16;6.45;;;5.30;;
52035;SDS011;38046;49.448;32.074;2022-11-12T03:37:42;6.38;;;5.20;;
52035;SDS011;38046;49.448;32.074;2022-11-12T03:40:08;8.15;;;5.50;;
52035;SDS011;38046;49.448;32.074;2022-11-12T03:42:34;6.63;;;5.03;;
52035;SDS011;38046;49.448;32.074;2022-11-12T03:44:59;8.10;;;5.32;;
52035;SDS011;38046;49.448;32.074;2022-11-12T03:47:25;6.65;;;5.15;;
52035;SDS011;38046;49.448;32.074;2022-11-12T03:49:50;7.30;;;5.07;;
52035;SDS011;38046;49.448;32.074;2022-11-12T03:52:16;6.40;;;5.03;;
52035;SDS011;38046;49.448;32.074;2022-11-12T03:54:42;6.78;;;5.32;;
52035;SDS011;38046;49.448;32.074;2022-11-12T03:57:07;7.97;;;5.30;;
52035;SDS011;38046;49.448;32.074;2022-11-12T03:59:33;7.38;;;5.28;;
52035;SDS011;38046;49.448;32.074;2022-11-12T04:01:59;6.50;;;4.63;;
52035;SDS011;38046;49.448;32.074;2022-11-12T04:04:24;7.88;;;5.72;;
52035;SDS011;38046;49.448;32.074;2022-11-12T04:07:10;6.70;;;4.97;;
52035;SDS011;38046;49.448;32.074;2022-11-12T04:10:13;6.50;;;4.60;;
52035;SDS011;38046;49.448;32.074;2022-11-12T04:12:39;7.45;;;5.07;;
52035;SDS011;38046;49.448;32.074;2022-11-12T04:15:23;6.88;;;4.93;;
52035;SDS011;38046;49.448;32.074;2022-11-12T04:17:49;7.15;;;5.40;;
52035;SDS011;38046;49.448;32.074;2022-11-12T04:20:33;7.47;;;5.45;;
52035;SDS011;38046;49.448;32.074;2022-11-12T04:23:17;7.53;;;5.60;;
52035;SDS011;38046;49.448;32.074;2022-11-12T04:25:43;5.55;;;4.60;;
52035;SDS011;38046;49.448;32.074;2022-11-12T04:28:27;5.68;;;4.13;;
52035;SDS011;38046;49.448;32.074;2022-11-12T04:30:53;5.35;;;4.10;;
52035;SDS011;38046;49.448;32.074;2022-11-12T04:33:19;5.60;;;4.82;;
52035;SDS011;38046;49.448;32.074;2022-11-12T04:35:44;6.03;;;4.53;;
52035;SDS011;38046;49.448;32.074;2022-11-12T04:38:10;6.15;;;5.03;;
52035;SDS011;38046;49.448;32.074;2022-11-12T04:40:35;6.80;;;5.05;;
52035;SDS011;38046;49.448;32.074;2022-11-12T04:43:19;8.25;;;5.65;;
52035;SDS011;38046;49.448;32.074;2022-11-12T04:46:04;6.38;;;4.78;;
52035;SDS011;38046;49.448;32.074;2022-11-12T04:48:29;9.48;;;5.93;;
52035;SDS011;38046;49.448;32.074;2022-11-12T04:50:56;9.13;;;5.28;;
52035;SDS011;38046;49.448;32.074;2022-11-12T04:53:23;8.30;;;6.88;;
52035;SDS011;38046;49.448;32.074;2022-11-12T04:55:50;6.75;;;4.80;;
52035;SDS011;38046;49.448;32.074;2022-11-12T04:58:17;8.02;;;5.53;;
52035;SDS011;38046;49.448;32.074;2022-11-12T05:00:43;9.25;;;6.05;;
52035;SDS011;38046;49.448;32.074;2022-11-12T05:03:08;7.20;;;5.22;;
52035;SDS011;38046;49.448;32.074;2022-11-12T05:05:34;8.52;;;5.72;;
52035;SDS011;38046;49.448;32.074;2022-11-12T05:08:00;6.45;;;5.05;;
52035;SDS011;38046;49.448;32.074;2022-11-12T05:10:27;5.95;;;4.72;;
52035;SDS011;38046;49.448;32.074;2022-11-12T05:12:53;6.45;;;4.60;;
52035;SDS011;38046;49.448;32.074;2022-11-12T05:15:19;8.15;;;5.00;;
52035;SDS011;38046;49.448;32.074;2022-11-12T05:17:45;6.75;;;4.60;;
52035;SDS011;38046;49.448;32.074;2022-11-12T05:20:11;8.05;;;4.75;;
52035;SDS011;38046;49.448;32.074;2022-11-12T05:22:37;7.97;;;4.53;;
52035;SDS011;38046;49.448;32.074;2022-11-12T05:25:03;7.03;;;4.60;;
52035;SDS011;38046;49.448;32.074;2022-11-12T05:27:30;6.97;;;4.38;;
52035;SDS011;38046;49.448;32.074;2022-11-12T05:29:56;5.72;;;4.13;;
52035;SDS011;38046;49.448;32.074;2022-11-12T05:32:21;6.13;;;4.10;;
52035;SDS011;38046;49.448;32.074;2022-11-12T05:34:47;5.85;;;4.30;;
52035;SDS011;38046;49.448;32.074;2022-11-12T05:37:13;6.10;;;4.65;;
52035;SDS011;38046;49.448;32.074;2022-11-12T05:39:39;7.00;;;4.78;;
52035;SDS011;38046;49.448;32.074;2022-11-12T05:42:05;7.03;;;4.85;;
52035;SDS011;38046;49.448;32.074;2022-11-12T05:44:31;7.30;;;4.57;;
52035;SDS011;38046;49.448;32.074;2022-11-12T05:46:57;5.93;;;4.50;;
52035;SDS011;38046;49.448;32.074;2022-11-12T05:49:22;7.57;;;4.60;;
52035;SDS011;38046;49.448;32.074;2022-11-12T05:51:48;7.88;;;5.03;;
52035;SDS011;38046;49.448;32.074;2022-11-12T05:54:15;7.18;;;5.03;;
52035;SDS011;38046;49.448;32.074;2022-11-12T05:56:41;7.60;;;4.82;;
52035;SDS011;38046;49.448;32.074;2022-11-12T05:59:07;7.65;;;5.30;;
52035;SDS011;38046;49.448;32.074;2022-11-12T06:01:35;7.53;;;4.97;;
52035;SDS011;38046;49.448;32.074;2022-11-12T06:04:08;6.97;;;5.00;;
52035;SDS011;38046;49.448;32.074;2022-11-12T06:06:37;6.03;;;4.35;;
52035;SDS011;38046;49.448;32.074;2022-11-12T06:09:07;6.75;;;4.63;;
52035;SDS011;38046;49.448;32.074;2022-11-12T06:11:33;6.45;;;4.68;;
52035;SDS011;38046;49.448;32.074;2022-11-12T06:13:59;6.55;;;4.72;;
52035;SDS011;38046;49.448;32.074;2022-11-12T06:16:25;6.03;;;3.95;;
52035;SDS011;38046;49.448;32.074;2022-11-12T06:18:51;7.03;;;4.85;;
52035;SDS011;38046;49.448;32.074;2022-11-12T06:21:16;7.22;;;5.40;;
52035;SDS011;38046;49.448;32.074;2022-11-12T06:23:49;6.20;;;5.10;;
52035;SDS011;38046;49.448;32.074;2022-11-12T06:26:17;5.70;;;4.28;;
52035;SDS011;38046;49.448;32.074;2022-11-12T06:28:43;6.30;;;4.53;;
52035;SDS011;38046;49.448;32.074;2022-11-12T06:31:09;7.00;;;4.43;;
52035;SDS011;38046;49.448;32.074;2022-11-12T06:33:36;4.85;;;4.07;;
52035;SDS011;38046;49.448;32.074;2022-11-12T06:36:02;6.20;;;4.38;;
52035;SDS011;38046;49.448;32.074;2022-11-12T06:38:30;6.63;;;4.95;;
52035;SDS011;38046;49.448;32.074;2022-11-12T06:40:59;6.53;;;4.85;;
52035;SDS011;38046;49.448;32.074;2022-11-12T06:43:26;7.15;;;4.65;;
52035;SDS011;38046;49.448;32.074;2022-11-12T06:45:53;5.45;;;4.03;;
52035;SDS011;38046;49.448;32.074;2022-11-12T06:48:18;5.22;;;4.10;;
52035;SDS011;38046;49.448;32.074;2022-11-12T06:50:44;5.95;;;4.80;;
52035;SDS011;38046;49.448;32.074;2022-11-12T06:53:10;4.78;;;3.80;;
52035;SDS011;38046;49.448;32.074;2022-11-12T06:55:35;4.63;;;3.88;;
52035;SDS011;38046;49.448;32.074;2022-11-12T06:58:01;4.97;;;4.03;;
52035;SDS011;38046;49.448;32.074;2022-11-12T07:00:26;5.93;;;4.28;;
52035;SDS011;38046;49.448;32.074;2022-11-12T07:02:52;7.72;;;4.63;;
52035;SDS011;38046;49.448;32.074;2022-11-12T07:05:18;4.75;;;3.90;;
52035;SDS011;38046;49.448;32.074;2022-11-12T07:07:43;5.45;;;4.18;;
52035;SDS011;38046;49.448;32.074;2022-11-12T07:10:09;5.85;;;4.43;;
52035;SDS011;38046;49.448;32.074;2022-11-12T07:12:34;5.75;;;4.90;;
52035;SDS011;38046;49.448;32.074;2022-11-12T07:15:00;6.28;;;4.68;;
52035;SDS011;38046;49.448;32.074;2022-11-12T07:17:26;5.07;;;3.95;;
52035;SDS011;38046;49.448;32.074;2022-11-12T07:19:51;5.68;;;4.45;;
52035;SDS011;38046;49.448;32.074;2022-11-12T07:22:17;5.40;;;3.90;;
52035;SDS011;38046;49.448;32.074;2022-11-12T07:24:42;5.07;;;3.92;;
52035;SDS011;38046;49.448;32.074;2022-11-12T07:27:08;5.65;;;4.63;;
52035;SDS011;38046;49.448;32.074;2022-11-12T07:29:34;5.72;;;4.95;;
52035;SDS011;38046;49.448;32.074;2022-11-12T07:31:59;6.40;;;5.03;;
52035;SDS011;38046;49.448;32.074;2022-11-12T07:34:25;6.82;;;5.32;;
52035;SDS011;38046;49.448;32.074;2022-11-12T07:36:50;5.82;;;4.70;;
52035;SDS011;38046;49.448;32.074;2022-11-12T07:39:16;5.95;;;4.72;;
52035;SDS011;38046;49.448;32.074;2022-11-12T07:41:42;7.50;;;5.15;;
52035;SDS011;38046;49.448;32.074;2022-11-12T07:44:08;8.77;;;5.22;;
52035;SDS011;38046;49.448;32.074;2022-11-12T07:46:34;6.97;;;4.78;;
52035;SDS011;38046;49.448;32.074;2022-11-12T07:49:03;7.22;;;5.38;;
52035;SDS011;38046;49.448;32.074;2022-11-12T07:51:29;6.75;;;5.10;;
52035;SDS011;38046;49.448;32.074;2022-11-12T07:53:55;5.68;;;4.68;;
52035;SDS011;38046;49.448;32.074;2022-11-12T07:56:24;6.13;;;4.57;;
52035;SDS011;38046;49.448;32.074;2022-11-12T07:58:50;7.35;;;5.75;;
52035;SDS011;38046;49.448;32.074;2022-11-12T08:01:32;8.00;;;5.85;;
52035;SDS011;38046;49.448;32.074;2022-11-12T08:04:09;7.70;;;5.72;;
52035;SDS011;38046;49.448;32.074;2022-11-12T08:06:36;7.47;;;4.88;;
52035;SDS011;38046;49.448;32.074;2022-11-12T08:09:03;7.78;;;5.88;;
52035;SDS011;38046;49.448;32.074;2022-11-12T08:11:30;7.18;;;5.50;;
52035;SDS011;38046;49.448;32.074;2022-11-12T08:13:56;6.45;;;4.90;;
52035;SDS011;38046;49.448;32.074;2022-11-12T08:16:22;7.53;;;5.32;;
52035;SDS011;38046;49.448;32.074;2022-11-12T08:18:48;6.30;;;4.90;;
52035;SDS011;38046;49.448;32.074;2022-11-12T08:21:17;6.53;;;4.70;;
52035;SDS011;38046;49.448;32.074;2022-11-12T08:23:46;6.40;;;5.10;;
52035;SDS011;38046;49.448;32.074;2022-11-12T08:26:14;6.75;;;4.88;;
52035;SDS011;38046;49.448;32.074;2022-11-12T08:28:42;6.10;;;4.40;;
52035;SDS011;38046;49.448;32.074;2022-11-12T08:31:18;5.78;;;4.38;;
52035;SDS011;38046;49.448;32.074;2022-11-12T08:33:45;5.75;;;4.20;;
52035;SDS011;38046;49.448;32.074;2022-11-12T08:36:11;6.10;;;4.13;;
52035;SDS011;38046;49.448;32.074;2022-11-12T08:38:39;7.82;;;5.35;;
52035;SDS011;38046;49.448;32.074;2022-11-12T08:41:09;7.60;;;4.55;;
52035;SDS011;38046;49.448;32.074;2022-11-12T08:43:38;4.93;;;3.80;;
52035;SDS011;38046;49.448;32.074;2022-11-12T08:46:04;5.35;;;4.32;;
52035;SDS011;38046;49.448;32.074;2022-11-12T08:48:30;7.13;;;5.13;;
52035;SDS011;38046;49.448;32.074;2022-11-12T08:50:59;6.63;;;4.18;;
52035;SDS011;38046;49.448;32.074;2022-11-12T08:53:26;5.72;;;4.57;;
52035;SDS011;38046;49.448;32.074;2022-11-12T08:55:55;4.63;;;4.00;;
52035;SDS011;38046;49.448;32.074;2022-11-12T08:58:21;5.60;;;4.38;;
52035;SDS011;38046;49.448;32.074;2022-11-12T09:00:48;6.68;;;4.95;;
52035;SDS011;38046;49.448;32.074;2022-11-12T09:03:15;7.60;;;5.57;;
52035;SDS011;38046;49.448;32.074;2022-11-12T09:05:43;7.13;;;4.75;;
52035;SDS011;38046;49.448;32.074;2022-11-12T09:08:10;6.30;;;4.20;;
52035;SDS011;38046;49.448;32.074;2022-11-12T09:10:38;6.35;;;4.97;;
52035;SDS011;38046;49.448;32.074;2022-11-12T09:13:03;7.32;;;4.95;;
52035;SDS011;38046;49.448;32.074;2022-11-12T09:15:29;7.13;;;4.93;;
52035;SDS011;38046;49.448;32.074;2022-11-12T09:18:00;6.68;;;4.10;;
52035;SDS011;38046;49.448;32.074;2022-11-12T09:20:27;8.20;;;5.20;;
52035;SDS011;38046;49.448;32.074;2022-11-12T09:22:57;5.00;;;3.92;;
52035;SDS011;38046;49.448;32.074;2022-11-12T09:25:31;6.05;;;4.03;;
52035;SDS011;38046;49.448;32.074;2022-11-12T09:28:03;5.40;;;3.80;;
52035;SDS011;38046;49.448;32.074;2022-11-12T09:30:37;5.20;;;3.80;;
52035;SDS011;38046;49.448;32.074;2022-11-12T09:33:07;5.95;;;3.92;;
52035;SDS011;38046;49.448;32.074;2022-11-12T09:35:32;5.00;;;4.05;;
52035;SDS011;38046;49.448;32.074;2022-11-12T09:37:58;9.98;;;4.82;;
52035;SDS011;38046;49.448;32.074;2022-11-12T09:40:30;5.38;;;4.45;;
52035;SDS011;38046;49.448;32.074;2022-11-12T09:43:15;4.60;;;3.78;;
52035;SDS011;38046;49.448;32.074;2022-11-12T09:45:47;5.10;;;3.70;;
52035;SDS011;38046;49.448;32.074;2022-11-12T09:48:35;5.68;;;3.70;;
52035;SDS011;38046;49.448;32.074;2022-11-12T09:53:56;7.50;;;4.32;;
52035;SDS011;38046;49.448;32.074;2022-11-12T09:56:24;4.70;;;3.80;;
52035;SDS011;38046;49.448;32.074;2022-11-12T09:58:50;5.82;;;4.25;;
52035;SDS011;38046;49.448;32.074;2022-11-12T12:18:18;4.90;;;3.35;;
52035;SDS011;38046;49.448;32.074;2022-11-12T12:21:11;4.55;;;3.60;;
52035;SDS011;38046;49.448;32.074;2022-11-12T12:26:26;5.03;;;3.40;;
52035;SDS011;38046;49.448;32.074;2022-11-12T12:31:37;5.75;;;4.10;;
52035;SDS011;38046;49.448;32.074;2022-11-12T12:36:43;7.43;;;4.43;;
52035;SDS011;38046;49.448;32.074;2022-11-12T12:39:17;5.80;;;4.20;;
52035;SDS011;38046;49.448;32.074;2022-11-12T12:41:50;7.30;;;4.60;;
52035;SDS011;38046;49.448;32.074;2022-11-12T12:44:26;4.43;;;3.45;;
52035;SDS011;38046;49.448;32.074;2022-11-12T12:47:14;5.20;;;3.92;;
52035;SDS011;38046;49.448;32.074;2022-11-12T12:49:42;3.95;;;3.40;;
52035;SDS011;38046;49.448;32.074;2022-11-12T12:52:11;4.10;;;3.20;;
52035;SDS011;38046;49.448;32.074;2022-11-12T13:02:59;4.38;;;3.08;;
52035;SDS011;38046;49.448;32.074;2022-11-12T13:05:26;3.60;;;2.78;;
52035;SDS011;38046;49.448;32.074;2022-11-12T13:08:09;5.72;;;3.30;;
52035;SDS011;38046;49.448;32.074;2022-11-12T13:21:13;4.68;;;3.28;;
52035;SDS011;38046;49.448;32.074;2022-11-12T13:23:53;4.53;;;3.30;;
52035;SDS011;38046;49.448;32.074;2022-11-12T13:37:51;4.10;;;3.17;;
52035;SDS011;38046;49.448;32.074;2022-11-12T13:45:22;5.63;;;3.33;;
52035;SDS011;38046;49.448;32.074;2022-11-12T13:47:51;4.68;;;3.65;;
52035;SDS011;38046;49.448;32.074;2022-11-12T13:50:21;4.63;;;3.50;;
52035;SDS011;38046;49.448;32.074;2022-11-12T13:52:48;3.38;;;3.03;;
52035;SDS011;38046;49.448;32.074;2022-11-12T13:55:15;5.22;;;3.50;;
52035;SDS011;38046;49.448;32.074;2022-11-12T13:57:48;4.22;;;3.22;;
52035;SDS011;38046;49.448;32.074;2022-11-12T14:02:44;3.92;;;3.22;;
52035;SDS011;38046;49.448;32.074;2022-11-12T14:05:26;5.22;;;3.58;;
52035;SDS011;38046;49.448;32.074;2022-11-12T14:08:04;4.47;;;3.53;;
52035;SDS011;38046;49.448;32.074;2022-11-12T14:14:24;4.97;;;3.65;;
52035;SDS011;38046;49.448;32.074;2022-11-12T14:16:36;3.50;;;3.13;;
52035;SDS011;38046;49.448;32.074;2022-11-12T14:19:29;5.15;;;3.65;;
52035;SDS011;38046;49.448;32.074;2022-11-12T14:22:13;4.75;;;3.47;;
52035;SDS011;38046;49.448;32.074;2022-11-12T14:24:41;4.88;;;3.70;;
52035;SDS011;38046;49.448;32.074;2022-11-12T14:27:20;4.78;;;3.78;;
52035;SDS011;38046;49.448;32.074;2022-11-12T14:29:48;5.95;;;3.50;;
52035;SDS011;38046;49.448;32.074;2022-11-12T14:32:33;5.97;;;3.60;;
52035;SDS011;38046;49.448;32.074;2022-11-12T14:35:15;4.57;;;3.45;;
52035;SDS011;38046;49.448;32.074;2022-11-12T14:37:47;4.35;;;3.20;;
52035;SDS011;38046;49.448;32.074;2022-11-12T14:40:31;6.13;;;4.28;;
52035;SDS011;38046;49.448;32.074;2022-11-12T14:42:59;5.03;;;4.00;;
52035;SDS011;38046;49.448;32.074;2022-11-12T14:45:25;5.50;;;4.00;;
52035;SDS011;38046;49.448;32.074;2022-11-12T14:47:51;5.80;;;3.83;;
52035;SDS011;38046;49.448;32.074;2022-11-12T14:52:47;6.07;;;4.07;;
52035;SDS011;38046;49.448;32.074;2022-11-12T14:55:16;6.88;;;4.53;;
52035;SDS011;38046;49.448;32.074;2022-11-12T15:00:16;3.50;;;3.15;;
52035;SDS011;38046;49.448;32.074;2022-11-12T15:02:44;4.07;;;3.25;;
52035;SDS011;38046;49.448;32.074;2022-11-12T15:05:15;4.63;;;3.33;;
52035;SDS011;38046;49.448;32.074;2022-11-12T15:07:58;5.68;;;3.88;;
52035;SDS011;38046;49.448;32.074;2022-11-12T15:15:38;4.60;;;3.78;;
52035;SDS011;38046;49.448;32.074;2022-11-12T15:18:17;4.97;;;3.65;;
52035;SDS011;38046;49.448;32.074;2022-11-12T15:21:27;5.90;;;4.07;;
52035;SDS011;38046;49.448;32.074;2022-11-12T15:23:51;5.20;;;3.92;;
52035;SDS011;38046;49.448;32.074;2022-11-12T15:26:24;5.63;;;4.45;;
52035;SDS011;38046;49.448;32.074;2022-11-12T15:28:58;5.80;;;4.10;;
52035;SDS011;38046;49.448;32.074;2022-11-12T15:31:23;7.40;;;4.80;;
52035;SDS011;38046;49.448;32.074;2022-11-12T15:33:49;6.35;;;4.55;;
52035;SDS011;38046;49.448;32.074;2022-11-12T15:36:19;5.97;;;4.63;;
52035;SDS011;38046;49.448;32.074;2022-11-12T15:38:53;6.80;;;5.47;;
52035;SDS011;38046;49.448;32.074;2022-11-12T15:41:28;6.32;;;4.80;;
52035;SDS011;38046;49.448;32.074;2022-11-12T15:43:54;9.25;;;5.70;;
52035;SDS011;38046;49.448;32.074;2022-11-12T15:46:20;7.45;;;5.13;;
52035;SDS011;38046;49.448;32.074;2022-11-12T15:48:46;7.55;;;5.32;;
52035;SDS011;38046;49.448;32.074;2022-11-12T15:51:13;6.20;;;4.63;;
52035;SDS011;38046;49.448;32.074;2022-11-12T15:53:41;7.13;;;5.22;;
52035;SDS011;38046;49.448;32.074;2022-11-12T15:56:10;8.77;;;5.90;;
52035;SDS011;38046;49.448;32.074;2022-11-12T15:58:38;7.28;;;5.30;;
52035;SDS011;38046;49.448;32.074;2022-11-12T16:01:04;8.93;;;6.28;;
52035;SDS011;38046;49.448;32.074;2022-11-12T18:17:13;12.15;;;9.07;;
52035;SDS011;38046;49.448;32.074;2022-11-12T18:19:38;12.23;;;9.07;;
52035;SDS011;38046;49.448;32.074;2022-11-12T18:22:04;11.27;;;8.98;;
52035;SDS011;38046;49.448;32.074;2022-11-12T18:24:30;11.80;;;7.93;;
52035;SDS011;38046;49.448;32.074;2022-11-12T18:26:55;14.77;;;9.27;;
52035;SDS011;38046;49.448;32.074;2022-11-12T18:29:21;16.13;;;10.30;;
52035;SDS011;38046;49.448;32.074;2022-11-12T18:31:47;11.95;;;9.18;;
52035;SDS011;38046;49.448;32.074;2022-11-12T18:34:12;15.27;;;10.88;;
52035;SDS011;38046;49.448;32.074;2022-11-12T18:36:39;15.50;;;10.43;;
52035;SDS011;38046;49.448;32.074;2022-11-12T18:39:04;14.55;;;10.68;;
52035;SDS011;38046;49.448;32.074;2022-11-12T18:41:30;14.32;;;10.90;;
52035;SDS011;38046;49.448;32.074;2022-11-12T18:43:57;14.40;;;11.60;;
52035;SDS011;38046;49.448;32.074;2022-11-12T18:46:24;15.50;;;11.00;;
52035;SDS011;38046;49.448;32.074;2022-11-12T18:48:50;14.00;;;8.75;;
52035;SDS011;38046;49.448;32.074;2022-11-12T18:51:16;13.57;;;9.80;;
52035;SDS011;38046;49.448;32.074;2022-11-12T18:53:43;11.35;;;8.55;;
52035;SDS011;38046;49.448;32.074;2022-11-12T18:56:17;12.63;;;9.85;;
52035;SDS011;38046;49.448;32.074;2022-11-12T18:58:50;14.52;;;10.63;;
52035;SDS011;38046;49.448;32.074;2022-11-12T19:01:17;12.50;;;9.20;;
52035;SDS011;38046;49.448;32.074;2022-11-12T19:03:45;14.40;;;10.88;;
52035;SDS011;38046;49.448;32.074;2022-11-12T19:06:11;16.08;;;11.18;;
52035;SDS011;38046;49.448;32.074;2022-11-12T19:08:38;16.65;;;11.95;;
52035;SDS011;38046;49.448;32.074;2022-11-12T19:11:05;16.02;;;11.65;;
52035;SDS011;38046;49.448;32.074;2022-11-12T19:13:32;15.77;;;10.73;;
52035;SDS011;38046;49.448;32.074;2022-11-12T19:16:02;15.52;;;11.77;;
52035;SDS011;38046;49.448;32.074;2022-11-12T19:18:30;14.27;;;10.70;;
52035;SDS011;38046;49.448;32.074;2022-11-12T19:21:03;12.65;;;9.45;;
52035;SDS011;38046;49.448;32.074;2022-11-12T19:23:30;13.02;;;9.90;;
52035;SDS011;38046;49.448;32.074;2022-11-12T19:25:58;16.60;;;12.35;;
52035;SDS011;38046;49.448;32.074;2022-11-12T19:28:25;16.15;;;11.10;;
52035;SDS011;38046;49.448;32.074;2022-11-12T19:30:50;13.52;;;10.57;;
52035;SDS011;38046;49.448;32.074;2022-11-12T19:33:16;13.68;;;9.48;;
52035;SDS011;38046;49.448;32.074;2022-11-12T19:35:41;15.35;;;9.65;;
52035;SDS011;38046;49.448;32.074;2022-11-12T19:38:07;14.55;;;10.35;;
52035;SDS011;38046;49.448;32.074;2022-11-12T19:40:33;12.80;;;9.23;;
52035;SDS011;38046;49.448;32.074;2022-11-12T19:42:58;12.65;;;9.82;;
52035;SDS011;38046;49.448;32.074;2022-11-12T19:45:24;12.45;;;8.93;;
52035;SDS011;38046;49.448;32.074;2022-11-12T19:47:50;11.57;;;8.23;;
52035;SDS011;38046;49.448;32.074;2022-11-12T19:50:16;9.77;;;7.45;;
52035;SDS011;38046;49.448;32.074;2022-11-12T19:52:42;10.20;;;7.60;;
52035;SDS011;38046;49.448;32.074;2022-11-12T19:55:08;10.05;;;7.28;;
52035;SDS011;38046;49.448;32.074;2022-11-12T19:57:33;8.95;;;6.80;;
52035;SDS011;38046;49.448;32.074;2022-11-12T19:59:59;7.97;;;5.97;;
52035;SDS011;38046;49.448;32.074;2022-11-12T20:02:25;10.85;;;7.90;;
52035;SDS011;38046;49.448;32.074;2022-11-12T20:04:50;9.60;;;6.35;;
52035;SDS011;38046;49.448;32.074;2022-11-12T20:07:16;10.38;;;7.43;;
52035;SDS011;38046;49.448;32.074;2022-11-12T20:09:42;8.38;;;6.20;;
52035;SDS011;38046;49.448;32.074;2022-11-12T20:12:08;8.30;;;5.80;;
52035;SDS011;38046;49.448;32.074;2022-11-12T20:14:34;9.20;;;6.88;;
52035;SDS011;38046;49.448;32.074;2022-11-12T20:17:00;8.55;;;6.50;;
52035;SDS011;38046;49.448;32.074;2022-11-12T20:19:25;9.50;;;7.03;;